createdAt,value
2018-07-16T00:01:46.222Z,18.50
2018-07-16T00:06:48.347Z,18.30
2018-07-16T00:11:50.512Z,18.60
2018-07-16T00:16:52.693Z,18.50
2018-07-16T00:21:54.850Z,18.80
2018-07-16T00:26:57.093Z,18.40
2018-07-16T00:31:59.202Z,19.00
2018-07-16T00:37:01.353Z,19.10
2018-07-16T00:42:03.486Z,19.30
2018-07-16T00:47:05.714Z,19.40
2018-07-16T00:52:07.851Z,19.20
2018-07-16T00:57:09.982Z,19.10
2018-07-16T01:02:12.109Z,18.80
2018-07-16T01:07:14.245Z,18.50
2018-07-16T01:12:16.366Z,18.50
2018-07-16T01:17:18.485Z,19.00
2018-07-16T01:22:20.577Z,19.30
2018-07-16T01:27:22.694Z,19.40
2018-07-16T01:32:24.793Z,19.30
2018-07-16T01:37:26.916Z,19.30
2018-07-16T01:42:29.047Z,18.90
2018-07-16T01:47:31.157Z,18.80
2018-07-16T01:52:33.281Z,19.10
2018-07-16T01:57:35.406Z,19.20
2018-07-16T02:02:37.529Z,18.70
2018-07-16T02:07:39.637Z,19.10
2018-07-16T02:17:50.807Z,18.50
2018-07-16T02:22:52.945Z,18.40
2018-07-16T02:27:55.381Z,18.90
2018-07-16T02:32:57.517Z,18.60
2018-07-16T02:37:59.650Z,18.50
2018-07-16T02:43:01.826Z,18.10
2018-07-16T02:48:04.287Z,18.10
2018-07-16T02:53:06.430Z,18.40
2018-07-16T02:58:08.549Z,18.60
2018-07-16T03:03:10.677Z,18.10
2018-07-16T03:08:12.786Z,18.10
2018-07-16T03:13:14.950Z,18.30
2018-07-16T03:18:17.061Z,18.30
2018-07-16T03:23:19.177Z,18.50
2018-07-16T03:28:21.304Z,18.30
2018-07-16T03:33:23.447Z,18.30
2018-07-16T03:38:25.565Z,18.40
2018-07-16T03:43:27.705Z,18.70
2018-07-16T03:48:29.822Z,18.90
2018-07-16T03:53:31.925Z,18.90
2018-07-16T03:58:34.084Z,18.80
2018-07-16T04:03:36.184Z,18.80
2018-07-16T04:08:38.289Z,18.60
2018-07-16T04:13:40.427Z,18.80
2018-07-16T04:18:42.597Z,19.00
2018-07-16T04:23:44.689Z,19.00
2018-07-16T04:28:46.901Z,19.00
2018-07-16T04:33:48.997Z,19.20
2018-07-16T04:38:51.105Z,19.50
2018-07-16T04:43:53.241Z,20.10
2018-07-16T04:48:55.366Z,19.90
2018-07-16T04:53:57.484Z,20.00
2018-07-16T04:58:59.610Z,20.10
2018-07-16T05:04:01.713Z,20.20
2018-07-16T05:09:04.837Z,20.30
2018-07-16T05:14:06.949Z,20.20
2018-07-16T05:19:09.069Z,19.90
2018-07-16T05:24:11.266Z,19.80
2018-07-16T05:29:13.309Z,19.90
2018-07-16T05:34:15.413Z,20.00
2018-07-16T05:39:17.539Z,20.30
2018-07-16T05:44:19.673Z,20.50
2018-07-16T05:49:21.802Z,20.70
2018-07-16T05:54:23.929Z,21.40
2018-07-16T05:59:26.042Z,21.00
2018-07-16T06:04:28.160Z,21.20
2018-07-16T06:09:30.269Z,20.80
2018-07-16T06:14:32.381Z,20.70
2018-07-16T06:19:34.497Z,20.90
2018-07-16T06:24:36.630Z,21.00
2018-07-16T06:29:38.749Z,21.00
2018-07-16T06:34:40.899Z,21.10
2018-07-16T06:39:43.071Z,21.10
2018-07-16T06:44:45.133Z,21.00
2018-07-16T06:49:47.243Z,21.10
2018-07-16T06:54:49.350Z,21.20
2018-07-16T06:59:51.473Z,21.20
2018-07-16T07:04:53.637Z,21.20
2018-07-16T07:09:55.769Z,21.40
2018-07-16T07:14:57.933Z,21.50
2018-07-16T07:20:00.051Z,21.60
2018-07-16T07:25:02.178Z,21.80
2018-07-16T07:30:04.554Z,22.20
2018-07-16T07:35:06.868Z,22.60
2018-07-16T07:40:08.901Z,23.00
2018-07-16T07:45:11.041Z,24.20
2018-07-16T07:50:13.191Z,25.10
2018-07-16T07:55:15.671Z,25.40
2018-07-16T08:00:17.453Z,25.50
2018-07-16T08:05:19.581Z,26.00
2018-07-16T08:10:21.718Z,26.30
2018-07-16T08:15:23.886Z,26.10
2018-07-16T08:20:26.013Z,26.50
2018-07-16T08:25:28.157Z,26.90
2018-07-16T08:30:30.282Z,26.70
2018-07-16T08:35:32.401Z,25.80
2018-07-16T08:40:34.537Z,26.50
2018-07-16T08:45:36.666Z,26.70
2018-07-16T08:50:38.855Z,27.10
2018-07-16T08:55:41.008Z,26.50
2018-07-16T09:00:43.121Z,27.40
2018-07-16T09:05:45.277Z,27.90
2018-07-16T09:10:47.456Z,26.60
2018-07-16T09:15:49.921Z,27.20
2018-07-16T09:20:52.030Z,27.90
2018-07-16T09:25:54.145Z,27.50
2018-07-16T09:30:56.284Z,27.60
2018-07-16T09:35:58.433Z,28.20
2018-07-16T09:41:00.594Z,28.20
2018-07-16T09:46:02.714Z,28.40
2018-07-16T09:51:04.949Z,28.00
2018-07-16T09:56:07.238Z,28.70
2018-07-16T10:01:15.268Z,28.80
2018-07-16T10:06:17.401Z,29.00
2018-07-16T10:11:19.533Z,28.90
2018-07-16T10:16:21.659Z,29.00
2018-07-16T10:21:23.797Z,28.90
2018-07-16T10:26:25.950Z,28.80
2018-07-16T10:31:28.089Z,29.30
2018-07-16T10:36:30.184Z,29.30
2018-07-16T10:41:32.301Z,28.70
2018-07-16T10:46:34.426Z,29.50
2018-07-16T10:51:36.549Z,29.90
2018-07-16T10:56:38.674Z,29.70
2018-07-16T11:01:40.878Z,29.20
2018-07-16T11:06:42.994Z,29.00
2018-07-16T11:11:45.114Z,28.70
2018-07-16T11:16:47.264Z,29.60
2018-07-16T11:21:49.389Z,29.80
2018-07-16T11:26:51.510Z,29.90
2018-07-16T11:31:53.617Z,30.10
2018-07-16T11:36:55.730Z,30.20
2018-07-16T11:41:57.853Z,29.80
2018-07-16T11:46:59.969Z,29.30
2018-07-16T11:52:02.105Z,29.70
2018-07-16T11:57:04.238Z,30.10
2018-07-16T12:02:06.350Z,30.10
2018-07-16T12:07:08.465Z,29.70
2018-07-16T12:12:10.649Z,30.10
2018-07-16T12:17:12.728Z,29.40
2018-07-16T12:22:14.841Z,29.80
2018-07-16T12:27:16.986Z,28.90
2018-07-16T12:32:19.102Z,29.40
2018-07-16T12:37:21.237Z,29.40
2018-07-16T12:42:23.350Z,29.40
2018-07-16T12:47:25.473Z,29.70
2018-07-16T12:52:27.597Z,29.80
2018-07-16T12:57:29.718Z,30.10
2018-07-16T13:02:31.833Z,30.00
2018-07-16T13:07:33.937Z,29.40
2018-07-16T13:12:36.061Z,30.20
2018-07-16T13:17:38.186Z,30.50
2018-07-16T13:22:40.323Z,30.60
2018-07-16T13:27:42.449Z,30.50
2018-07-16T13:32:44.564Z,30.60
2018-07-16T13:37:46.721Z,30.30
2018-07-16T13:42:48.988Z,29.90
2018-07-16T13:47:51.102Z,30.40
2018-07-16T13:52:54.103Z,30.50
2018-07-16T13:57:56.253Z,30.90
2018-07-16T14:02:58.433Z,30.00
2018-07-16T14:08:00.552Z,29.30
2018-07-16T14:13:02.681Z,29.50
2018-07-16T14:18:04.809Z,29.20
2018-07-16T14:23:06.938Z,29.80
2018-07-16T14:28:09.394Z,30.30
2018-07-16T14:33:11.549Z,30.30
2018-07-16T14:38:13.698Z,29.90
2018-07-16T14:43:15.821Z,30.20
2018-07-16T14:48:17.926Z,29.50
2018-07-16T14:53:20.054Z,30.20
2018-07-16T14:58:22.169Z,30.30
2018-07-16T15:03:24.298Z,29.90
2018-07-16T15:08:26.576Z,29.80
2018-07-16T15:13:28.685Z,30.00
2018-07-16T15:18:30.889Z,29.90
2018-07-16T15:23:33.017Z,30.00
2018-07-16T15:28:35.134Z,29.90
2018-07-16T15:33:37.254Z,30.20
2018-07-16T15:38:39.387Z,30.40
2018-07-16T15:43:41.808Z,30.10
2018-07-16T15:48:43.959Z,30.20
2018-07-16T15:53:46.118Z,29.70
2018-07-16T15:58:48.246Z,29.60
2018-07-16T16:03:50.401Z,29.70
2018-07-16T16:08:52.592Z,29.80
2018-07-16T16:13:54.719Z,29.70
2018-07-16T16:18:56.825Z,29.50
2018-07-16T16:23:58.937Z,27.80
2018-07-16T16:29:01.113Z,25.80
2018-07-16T16:34:03.362Z,24.90
2018-07-16T16:39:06.557Z,23.70
2018-07-16T16:44:08.694Z,24.10
2018-07-16T16:49:10.918Z,24.80
2018-07-16T16:54:12.954Z,24.80
2018-07-16T16:59:15.083Z,23.60
2018-07-16T17:04:17.193Z,24.20
2018-07-16T17:09:19.350Z,24.80
2018-07-16T17:14:21.477Z,24.70
2018-07-16T17:19:23.653Z,24.90
2018-07-16T17:24:25.729Z,23.60
2018-07-16T17:29:27.854Z,23.80
2018-07-16T17:34:29.985Z,23.90
2018-07-16T17:39:32.086Z,23.80
2018-07-16T17:44:34.234Z,24.00
2018-07-16T17:49:36.425Z,23.90
2018-07-16T17:54:38.526Z,24.10
2018-07-16T17:59:40.649Z,24.00
2018-07-16T18:04:42.790Z,23.90
2018-07-16T18:09:44.918Z,24.00
2018-07-16T18:14:47.051Z,24.00
2018-07-16T18:19:49.195Z,24.10
2018-07-16T18:24:51.302Z,24.10
2018-07-16T18:29:53.421Z,24.00
2018-07-16T18:34:55.560Z,24.00
2018-07-16T18:39:57.669Z,23.80
2018-07-16T18:44:59.809Z,23.70
2018-07-16T18:50:01.948Z,23.70
2018-07-16T18:55:04.333Z,23.70
2018-07-16T19:00:08.074Z,23.60
2018-07-16T19:05:10.215Z,23.60
2018-07-16T19:10:12.342Z,23.40
2018-07-16T19:15:24.805Z,23.30
2018-07-16T19:20:27.131Z,23.10
2018-07-16T19:25:29.261Z,23.00
2018-07-16T19:30:31.378Z,22.80
2018-07-16T19:35:33.618Z,22.80
2018-07-16T19:40:35.678Z,22.70
2018-07-16T19:45:37.805Z,22.60
2018-07-16T19:50:40.158Z,22.50
2018-07-16T19:55:42.290Z,22.50
2018-07-16T20:00:45.169Z,22.60
2018-07-16T20:05:47.292Z,22.50
2018-07-16T20:10:49.443Z,22.20
2018-07-16T20:15:51.597Z,21.80
2018-07-16T20:20:55.807Z,22.00
2018-07-16T20:25:58.713Z,22.40
2018-07-16T20:31:00.865Z,22.50
2018-07-16T20:36:03.013Z,22.20
2018-07-16T20:41:05.153Z,22.00
2018-07-16T20:46:07.257Z,22.00
2018-07-16T20:51:09.373Z,21.80
2018-07-16T20:56:12.310Z,21.70
2018-07-16T21:01:14.441Z,21.70
2018-07-16T21:06:16.580Z,21.70
2018-07-16T21:11:18.728Z,21.50
2018-07-16T21:16:20.874Z,21.20
2018-07-16T21:21:23.169Z,21.20
2018-07-16T21:26:25.357Z,21.20
2018-07-16T21:31:27.489Z,21.20
2018-07-16T21:36:29.589Z,21.20
2018-07-16T21:41:31.702Z,20.90
2018-07-16T21:46:33.856Z,21.00
2018-07-16T21:51:35.934Z,21.10
2018-07-16T21:56:38.061Z,20.70
2018-07-16T22:01:40.207Z,20.50
2018-07-16T22:06:42.329Z,20.60
2018-07-16T22:11:44.458Z,20.50
2018-07-16T22:16:46.589Z,20.40
2018-07-16T22:21:48.709Z,20.20
2018-07-16T22:26:50.830Z,20.40
2018-07-16T22:31:52.965Z,20.20
2018-07-16T22:36:55.066Z,20.00
2018-07-16T22:41:57.194Z,20.10
2018-07-16T22:46:59.295Z,19.90
2018-07-16T22:52:01.410Z,19.90
2018-07-16T22:57:03.553Z,19.70
2018-07-16T23:02:05.693Z,19.10
2018-07-16T23:07:07.829Z,19.20
2018-07-16T23:23:03.238Z,19.10
2018-07-16T23:33:31.025Z,19.30
2018-07-16T23:38:33.141Z,19.40
2018-07-16T23:43:35.287Z,19.30
2018-07-16T23:48:37.414Z,19.20
2018-07-16T23:53:39.566Z,19.30
2018-07-16T23:58:41.706Z,19.10
